createdAt,value
2023-07-20T00:00:26.161Z,99.71
2023-07-20T00:01:26.176Z,99.91
2023-07-20T00:02:26.204Z,99.61
2023-07-20T00:03:26.146Z,99.99
2023-07-20T00:04:26.194Z,99.99
2023-07-20T00:05:26.321Z,99.99
2023-07-20T00:06:26.112Z,99.99
2023-07-20T00:07:26.147Z,99.99
2023-07-20T00:08:26.101Z,99.99
2023-07-20T00:09:26.094Z,99.99
2023-07-20T00:10:26.092Z,99.99
2023-07-20T00:11:26.080Z,99.99
2023-07-20T00:12:26.078Z,99.99
2023-07-20T00:13:26.082Z,99.99
2023-07-20T00:14:26.064Z,99.99
2023-07-20T00:15:26.068Z,99.99
2023-07-20T00:16:26.428Z,99.99
2023-07-20T00:17:26.069Z,99.99
2023-07-20T00:18:26.051Z,99.99
2023-07-20T00:19:26.062Z,99.99
2023-07-20T00:20:26.051Z,99.99
2023-07-20T00:21:26.038Z,99.99
2023-07-20T00:22:26.037Z,99.99
2023-07-20T00:23:26.029Z,99.99
2023-07-20T00:24:26.028Z,99.99
2023-07-20T00:25:26.043Z,99.99
2023-07-20T00:26:26.228Z,99.99
2023-07-20T00:27:26.011Z,99.99
2023-07-20T00:28:26.016Z,99.99
2023-07-20T00:29:26.010Z,99.99
2023-07-20T00:30:26.022Z,99.99
2023-07-20T00:31:25.995Z,99.99
2023-07-20T00:32:25.988Z,99.99
2023-07-20T00:33:25.989Z,99.99
2023-07-20T00:34:26.631Z,99.99
2023-07-20T00:35:25.975Z,99.99
2023-07-20T00:36:25.978Z,99.99
2023-07-20T00:37:26.008Z,99.99
2023-07-20T00:38:25.968Z,99.99
2023-07-20T00:39:25.963Z,99.99
2023-07-20T00:40:25.957Z,99.99
2023-07-20T00:41:25.958Z,99.99
2023-07-20T00:42:26.632Z,99.99
2023-07-20T00:43:25.942Z,99.99
2023-07-20T00:44:25.946Z,99.99
2023-07-20T00:45:25.935Z,99.99
2023-07-20T00:46:26.491Z,99.99
2023-07-20T00:47:25.944Z,99.99
2023-07-20T00:48:25.923Z,99.99
2023-07-20T00:49:25.914Z,99.99
2023-07-20T00:50:25.910Z,99.99
2023-07-20T00:51:25.913Z,99.99
2023-07-20T00:52:25.960Z,99.99
2023-07-20T00:53:25.899Z,99.99
2023-07-20T00:54:25.891Z,99.99
2023-07-20T00:55:25.888Z,99.99
2023-07-20T00:56:26.166Z,99.99
2023-07-20T00:57:25.935Z,99.99
2023-07-20T00:58:25.877Z,99.99
2023-07-20T00:59:25.872Z,99.99
2023-07-20T01:00:25.874Z,99.99
2023-07-20T01:01:25.897Z,99.99
2023-07-20T01:02:25.876Z,99.99
2023-07-20T01:03:25.984Z,99.99
2023-07-20T01:04:25.858Z,99.99
2023-07-20T01:05:25.843Z,99.99
2023-07-20T01:06:25.901Z,99.99
2023-07-20T01:07:25.850Z,99.99
2023-07-20T01:08:25.844Z,99.99
2023-07-20T01:09:25.835Z,99.99
2023-07-20T01:10:25.822Z,99.99
2023-07-20T01:11:25.818Z,99.99
2023-07-20T01:12:25.819Z,99.99
2023-07-20T01:13:25.842Z,99.99
2023-07-20T01:14:25.806Z,99.99
2023-07-20T01:15:25.802Z,99.99
2023-07-20T01:16:26.273Z,99.99
2023-07-20T01:17:25.826Z,99.99
2023-07-20T01:18:25.858Z,99.99
2023-07-20T01:19:25.795Z,99.99
2023-07-20T01:20:25.781Z,99.99
2023-07-20T01:21:25.771Z,99.99
2023-07-20T01:22:25.824Z,99.99
2023-07-20T01:23:25.910Z,99.99
2023-07-20T01:24:25.766Z,99.99
2023-07-20T01:25:25.774Z,99.99
2023-07-20T01:26:25.760Z,99.99
2023-07-20T01:27:25.768Z,99.99
2023-07-20T01:28:25.807Z,99.99
2023-07-20T01:29:25.736Z,99.99
2023-07-20T01:30:25.750Z,99.99
2023-07-20T01:31:25.798Z,99.99
2023-07-20T01:32:25.798Z,99.99
2023-07-20T01:33:25.727Z,99.99
2023-07-20T01:34:25.714Z,99.99
2023-07-20T01:35:25.714Z,99.41
2023-07-20T01:36:25.744Z,99.71
2023-07-20T01:37:25.704Z,99.51
2023-07-20T01:38:25.697Z,99.51
2023-07-20T01:39:25.693Z,99.51
2023-07-20T01:40:25.691Z,99.30
2023-07-20T01:41:25.691Z,99.05
2023-07-20T01:42:25.681Z,99.61
2023-07-20T01:43:25.677Z,98.80
2023-07-20T01:44:25.675Z,99.61
2023-07-20T01:45:25.683Z,99.36
2023-07-20T01:46:25.953Z,98.80
2023-07-20T01:47:25.730Z,99.26
2023-07-20T01:48:25.666Z,98.80
2023-07-20T01:49:25.653Z,99.51
2023-07-20T01:50:25.658Z,99.61
2023-07-20T01:51:25.646Z,99.21
2023-07-20T01:52:25.644Z,99.41
2023-07-20T01:53:25.633Z,99.61
2023-07-20T01:54:25.635Z,99.10
2023-07-20T01:55:25.674Z,99.10
2023-07-20T01:56:25.824Z,99.10
2023-07-20T01:57:25.615Z,99.01
2023-07-20T01:58:25.611Z,98.90
2023-07-20T01:59:25.606Z,99.41
2023-07-20T02:00:25.639Z,99.51
2023-07-20T02:01:25.698Z,99.51
2023-07-20T02:02:25.624Z,99.41
2023-07-20T02:03:25.588Z,99.51
2023-07-20T02:04:25.586Z,99.30
2023-07-20T02:05:25.669Z,99.10
2023-07-20T02:06:26.117Z,98.90
2023-07-20T02:07:25.574Z,98.80
2023-07-20T02:08:25.568Z,98.80
2023-07-20T02:09:25.582Z,99.61
2023-07-20T02:10:25.608Z,99.21
2023-07-20T02:11:25.555Z,98.70
2023-07-20T02:12:25.550Z,99.30
2023-07-20T02:13:25.542Z,99.30
2023-07-20T02:14:25.554Z,99.41
2023-07-20T02:15:25.574Z,99.21
2023-07-20T02:16:25.883Z,99.10
2023-07-20T02:17:25.574Z,99.10
2023-07-20T02:18:25.520Z,98.90
2023-07-20T02:19:25.517Z,99.01
2023-07-20T02:20:25.512Z,98.70
2023-07-20T02:21:25.597Z,98.80
2023-07-20T02:22:25.515Z,98.80
2023-07-20T02:23:25.507Z,99.10
2023-07-20T02:24:25.493Z,99.41
2023-07-20T02:25:25.520Z,99.30
2023-07-20T02:26:25.687Z,99.61
2023-07-20T02:27:25.482Z,99.41
2023-07-20T02:28:25.477Z,99.41
2023-07-20T02:29:25.471Z,99.51
2023-07-20T02:30:25.470Z,99.10
2023-07-20T02:31:25.496Z,99.71
2023-07-20T02:32:25.460Z,99.01
2023-07-20T02:33:25.455Z,98.90
2023-07-20T02:34:25.457Z,98.90
2023-07-20T02:35:25.445Z,99.01
2023-07-20T02:36:25.707Z,99.10
2023-07-20T02:37:25.455Z,98.90
2023-07-20T02:38:25.434Z,98.90
2023-07-20T02:39:25.425Z,99.51
2023-07-20T02:40:25.427Z,99.76
2023-07-20T02:41:25.448Z,99.71
2023-07-20T02:42:25.421Z,99.71
2023-07-20T02:43:25.407Z,99.61
2023-07-20T02:44:25.411Z,99.91
2023-07-20T02:45:25.400Z,99.99
2023-07-20T02:46:25.765Z,99.86
2023-07-20T02:47:25.397Z,99.99
2023-07-20T02:48:25.385Z,99.86
2023-07-20T02:49:25.376Z,99.99
2023-07-20T02:50:25.374Z,99.99
2023-07-20T02:51:25.371Z,99.99
2023-07-20T02:52:25.365Z,99.99
2023-07-20T02:53:25.377Z,99.99
2023-07-20T02:54:25.353Z,99.99
2023-07-20T02:55:25.356Z,99.99
2023-07-20T02:56:25.343Z,99.99
2023-07-20T02:57:25.338Z,99.99
2023-07-20T02:58:25.334Z,99.99
2023-07-20T02:59:25.337Z,99.99
2023-07-20T03:00:25.329Z,99.99
2023-07-20T03:01:25.385Z,99.99
2023-07-20T03:02:25.321Z,99.99
2023-07-20T03:03:25.388Z,99.99
2023-07-20T03:04:25.305Z,99.99
2023-07-20T03:05:25.299Z,99.99
2023-07-20T03:06:25.731Z,99.99
2023-07-20T03:07:25.290Z,99.99
2023-07-20T03:08:25.341Z,99.99
2023-07-20T03:09:25.281Z,99.99
2023-07-20T03:10:25.300Z,99.99
2023-07-20T03:11:25.273Z,99.99
2023-07-20T03:12:25.268Z,99.99
2023-07-20T03:13:25.262Z,99.99
2023-07-20T03:14:25.254Z,99.99
2023-07-20T03:15:25.259Z,99.99
2023-07-20T03:16:25.532Z,99.99
2023-07-20T03:17:25.287Z,99.99
2023-07-20T03:18:25.240Z,99.99
2023-07-20T03:19:25.229Z,99.99
2023-07-20T03:20:25.258Z,99.99
2023-07-20T03:21:25.224Z,99.99
2023-07-20T03:22:25.216Z,99.99
2023-07-20T03:23:25.214Z,99.99
2023-07-20T03:24:25.214Z,99.99
2023-07-20T03:25:27.893Z,99.99
2023-07-20T03:26:25.448Z,99.99
2023-07-20T03:27:25.190Z,99.99
2023-07-20T03:28:25.184Z,99.99
2023-07-20T03:29:25.177Z,99.99
2023-07-20T03:30:25.174Z,99.99
2023-07-20T03:31:25.244Z,99.99
2023-07-20T03:32:25.187Z,99.99
2023-07-20T03:33:25.160Z,99.99
2023-07-20T03:34:25.163Z,99.99
2023-07-20T03:35:25.155Z,99.99
2023-07-20T03:36:25.324Z,99.99
2023-07-20T03:37:25.138Z,99.99
2023-07-20T03:38:25.148Z,99.99
2023-07-20T03:39:25.132Z,99.86
2023-07-20T03:40:25.140Z,99.86
2023-07-20T03:41:25.125Z,99.99
2023-07-20T03:42:25.113Z,99.99
2023-07-20T03:43:25.111Z,99.35
2023-07-20T03:44:25.114Z,99.76
2023-07-20T03:45:25.179Z,99.46
2023-07-20T03:46:25.527Z,99.66
2023-07-20T03:47:25.113Z,99.46
2023-07-20T03:48:25.090Z,99.86
2023-07-20T03:49:25.085Z,99.55
2023-07-20T03:50:25.073Z,99.35
2023-07-20T03:51:25.071Z,99.55
2023-07-20T03:52:25.064Z,99.76
2023-07-20T03:53:25.063Z,99.86
2023-07-20T03:54:25.056Z,99.76
2023-07-20T03:55:25.047Z,99.66
2023-07-20T03:56:25.170Z,99.76
2023-07-20T03:57:25.053Z,99.66
2023-07-20T03:58:25.034Z,99.55
2023-07-20T03:59:25.026Z,99.55
2023-07-20T04:00:25.023Z,99.66
2023-07-20T04:01:25.146Z,99.99
2023-07-20T04:02:25.052Z,99.96
2023-07-20T04:03:25.089Z,99.46
2023-07-20T04:04:25.017Z,99.25
2023-07-20T04:05:24.999Z,99.96
2023-07-20T04:06:25.357Z,99.66
2023-07-20T04:07:25.015Z,99.99
2023-07-20T04:08:25.011Z,99.66
2023-07-20T04:09:25.021Z,99.46
2023-07-20T04:10:24.987Z,99.51
2023-07-20T04:11:25.017Z,99.71
2023-07-20T04:12:24.988Z,99.81
2023-07-20T04:13:24.958Z,99.71
2023-07-20T04:14:24.956Z,99.51
2023-07-20T04:15:24.957Z,99.61
2023-07-20T04:16:25.235Z,99.51
2023-07-20T04:17:24.948Z,99.10
2023-07-20T04:18:24.933Z,99.41
2023-07-20T04:19:24.950Z,99.01
2023-07-20T04:20:24.931Z,99.21
2023-07-20T04:21:24.919Z,98.80
2023-07-20T04:22:24.924Z,99.21
2023-07-20T04:23:24.919Z,99.10
2023-07-20T04:24:24.914Z,98.60
2023-07-20T04:25:24.900Z,99.21
2023-07-20T04:26:25.035Z,98.80
2023-07-20T04:27:24.890Z,98.70
2023-07-20T04:28:24.888Z,98.75
2023-07-20T04:29:24.900Z,98.65
2023-07-20T04:30:24.884Z,98.55
2023-07-20T04:31:24.962Z,98.14
2023-07-20T04:32:24.912Z,98.25
2023-07-20T04:33:24.867Z,98.05
2023-07-20T04:34:24.854Z,98.55
2023-07-20T04:35:24.852Z,98.35
2023-07-20T04:36:25.051Z,98.00
2023-07-20T04:37:24.844Z,98.20
2023-07-20T04:38:24.863Z,97.60
2023-07-20T04:39:31.416Z,97.39
2023-07-20T04:40:24.827Z,96.98
2023-07-20T04:41:24.831Z,97.19
2023-07-20T04:42:24.818Z,97.09
2023-07-20T04:43:24.818Z,96.78
2023-07-20T04:44:24.808Z,96.89
2023-07-20T04:45:24.829Z,95.83
2023-07-20T04:46:25.157Z,96.74
2023-07-20T04:47:24.843Z,95.93
2023-07-20T04:48:24.794Z,95.53
2023-07-20T04:49:24.791Z,95.83
2023-07-20T04:50:24.818Z,94.82
2023-07-20T04:51:24.791Z,95.02
2023-07-20T04:52:37.499Z,94.72
2023-07-20T04:53:24.768Z,94.21
2023-07-20T04:54:24.766Z,94.21
2023-07-20T04:55:24.769Z,94.31
2023-07-20T04:56:25.133Z,94.72
2023-07-20T04:57:24.747Z,94.78
2023-07-20T04:58:24.765Z,94.62
2023-07-20T04:59:24.771Z,94.62
2023-07-20T05:00:24.742Z,94.51
2023-07-20T05:01:24.764Z,94.72
2023-07-20T05:02:24.784Z,95.32
2023-07-20T05:03:24.823Z,95.22
2023-07-20T05:04:24.804Z,95.22
2023-07-20T05:05:24.712Z,95.28
2023-07-20T05:06:25.107Z,95.02
2023-07-20T05:07:24.707Z,94.62
2023-07-20T05:08:24.705Z,94.01
2023-07-20T05:09:24.701Z,95.17
2023-07-20T05:10:24.696Z,94.62
2023-07-20T05:11:24.690Z,95.12
2023-07-20T05:12:24.688Z,95.32
2023-07-20T05:13:24.697Z,95.12
2023-07-20T05:14:24.677Z,94.72
2023-07-20T05:15:24.672Z,94.27
2023-07-20T05:16:24.901Z,94.47
2023-07-20T05:17:24.691Z,94.47
2023-07-20T05:18:24.664Z,93.66
2023-07-20T05:19:24.663Z,93.36
2023-07-20T05:20:24.676Z,92.65
2023-07-20T05:21:24.642Z,92.65
2023-07-20T05:22:24.640Z,92.30
2023-07-20T05:23:24.642Z,91.66
2023-07-20T05:24:24.629Z,91.19
2023-07-20T05:25:24.629Z,91.35
2023-07-20T05:26:24.829Z,90.75
2023-07-20T05:27:24.624Z,90.95
2023-07-20T05:28:24.613Z,90.95
2023-07-20T05:29:24.616Z,90.85
2023-07-20T05:30:24.605Z,90.55
2023-07-20T05:31:24.662Z,90.55
2023-07-20T05:32:24.616Z,90.61
2023-07-20T05:33:24.602Z,90.00
2023-07-20T05:34:24.587Z,89.25
2023-07-20T05:35:24.584Z,88.24
2023-07-20T05:36:24.841Z,88.24
2023-07-20T05:37:24.583Z,88.45
2023-07-20T05:38:24.584Z,88.00
2023-07-20T05:39:24.568Z,86.06
2023-07-20T05:40:24.562Z,85.08
2023-07-20T05:41:24.562Z,81.78
2023-07-20T05:42:24.557Z,79.60
2023-07-20T05:43:24.551Z,78.02
2023-07-20T05:44:24.547Z,76.43
2023-07-20T05:45:24.561Z,75.37
2023-07-20T05:46:24.773Z,72.39
2023-07-20T05:47:24.569Z,72.39
2023-07-20T05:48:24.532Z,72.02
2023-07-20T05:49:24.529Z,70.65
2023-07-20T05:50:24.528Z,68.46
2023-07-20T05:51:24.525Z,67.26
2023-07-20T05:52:24.532Z,68.06
2023-07-20T05:53:24.522Z,69.23
2023-07-20T05:54:24.512Z,69.16
2023-07-20T05:55:24.516Z,69.23
2023-07-20T05:56:24.814Z,69.09
2023-07-20T05:57:24.505Z,68.73
2023-07-20T05:58:24.601Z,68.89
2023-07-20T05:59:24.497Z,68.26
2023-07-20T06:00:24.498Z,69.09
2023-07-20T06:01:24.541Z,66.41
2023-07-20T06:02:24.519Z,64.82
2023-07-20T06:03:24.524Z,63.95
2023-07-20T06:04:24.490Z,63.46
2023-07-20T06:05:26.431Z,63.46
2023-07-20T06:06:24.735Z,62.69
2023-07-20T06:07:24.489Z,62.45
2023-07-20T06:08:24.484Z,64.21
2023-07-20T06:09:24.479Z,65.07
2023-07-20T06:10:24.478Z,66.76
2023-07-20T06:11:24.483Z,69.02
2023-07-20T06:12:24.477Z,70.26
2023-07-20T06:13:24.474Z,70.19
2023-07-20T06:14:24.478Z,69.89
2023-07-20T06:15:24.470Z,71.50
2023-07-20T06:16:24.715Z,70.39
2023-07-20T06:17:24.530Z,71.66
2023-07-20T06:18:24.465Z,69.66
2023-07-20T06:19:24.474Z,68.99
2023-07-20T06:20:24.883Z,69.19
2023-07-20T06:21:24.461Z,67.60
2023-07-20T06:22:24.463Z,66.73
2023-07-20T06:23:24.459Z,65.94
2023-07-20T06:24:24.456Z,67.03
2023-07-20T06:25:24.474Z,65.83
2023-07-20T06:26:24.716Z,65.80
2023-07-20T06:27:24.454Z,65.63
2023-07-20T06:28:24.466Z,67.40
2023-07-20T06:29:24.451Z,68.93
2023-07-20T06:30:24.450Z,67.66
2023-07-20T06:31:24.482Z,69.23
2023-07-20T06:32:24.448Z,71.96
2023-07-20T06:33:24.447Z,72.43
2023-07-20T06:34:24.624Z,73.17
2023-07-20T06:35:24.444Z,73.37
2023-07-20T06:36:24.660Z,73.50
2023-07-20T06:37:24.433Z,75.29
2023-07-20T06:42:24.434Z,77.09
2023-07-20T06:44:24.464Z,71.96
2023-07-20T06:45:24.431Z,69.02
2023-07-20T06:46:24.693Z,69.12
2023-07-20T06:47:24.453Z,68.79
2023-07-20T06:48:24.418Z,67.10
2023-07-20T06:49:24.418Z,65.04
2023-07-20T06:51:24.800Z,62.95
2023-07-20T06:52:24.416Z,60.59
2023-07-20T06:53:24.424Z,61.22
2023-07-20T06:54:24.490Z,61.19
2023-07-20T06:55:24.412Z,60.49
2023-07-20T06:56:26.158Z,61.25
2023-07-20T06:57:24.422Z,61.61
2023-07-20T06:58:24.421Z,60.52
2023-07-20T06:59:24.410Z,58.80
2023-07-20T07:00:24.411Z,61.71
2023-07-20T07:01:24.723Z,61.02
2023-07-20T07:02:24.552Z,60.48
2023-07-20T07:03:28.405Z,61.93
2023-07-20T07:04:24.442Z,63.86
2023-07-20T07:05:24.572Z,64.62
2023-07-20T07:06:25.101Z,65.39
2023-07-20T07:07:27.530Z,67.32
2023-07-20T07:08:24.411Z,66.49
2023-07-20T07:09:24.409Z,65.79
2023-07-20T07:10:24.408Z,65.70
2023-07-20T07:11:24.752Z,61.82
2023-07-20T07:12:24.409Z,60.63
2023-07-20T07:13:25.405Z,58.22
2023-07-20T07:14:26.483Z,58.31
2023-07-20T07:15:24.405Z,57.06
2023-07-20T07:16:24.521Z,55.22
2023-07-20T07:18:24.442Z,53.45
2023-07-20T07:19:24.406Z,51.87
2023-07-20T07:20:24.406Z,54.17
2023-07-20T07:21:24.408Z,55.17
2023-07-20T07:22:24.409Z,54.20
2023-07-20T07:23:24.425Z,52.69
2023-07-20T07:25:24.447Z,51.57
2023-07-20T07:26:24.750Z,50.31
2023-07-20T07:27:24.411Z,50.63
2023-07-20T07:28:24.414Z,51.89
2023-07-20T07:29:24.414Z,53.63
2023-07-20T07:30:24.426Z,54.63
2023-07-20T07:31:24.461Z,56.19
2023-07-20T07:32:24.477Z,52.42
2023-07-20T07:33:24.417Z,53.48
2023-07-20T07:34:24.425Z,53.43
2023-07-20T07:35:24.433Z,51.84
2023-07-20T07:36:24.661Z,51.92
2023-07-20T07:37:24.428Z,50.46
2023-07-20T07:39:34.223Z,50.28
2023-07-20T07:40:24.438Z,49.32
2023-07-20T07:41:24.441Z,49.96
2023-07-20T07:42:25.270Z,50.31
2023-07-20T07:43:24.433Z,49.27
2023-07-20T07:44:24.434Z,47.56
2023-07-20T07:45:24.447Z,47.06
2023-07-20T07:46:24.736Z,48.99
2023-07-20T07:47:24.469Z,49.91
2023-07-20T07:48:24.443Z,50.53
2023-07-20T07:49:24.449Z,51.37
2023-07-20T07:50:24.445Z,53.16
2023-07-20T07:51:24.446Z,53.46
2023-07-20T07:52:24.446Z,53.49
2023-07-20T07:53:24.488Z,54.41
2023-07-20T07:54:24.450Z,55.13
2023-07-20T07:55:24.457Z,54.13
2023-07-20T07:56:25.244Z,54.06
2023-07-20T07:57:24.457Z,55.38
2023-07-20T07:58:24.457Z,55.18
2023-07-20T07:59:24.458Z,55.80
2023-07-20T08:00:24.467Z,57.06
2023-07-20T08:01:24.492Z,58.55
2023-07-20T08:02:24.547Z,57.28
2023-07-20T08:03:24.628Z,58.11
2023-07-20T08:04:24.466Z,58.34
2023-07-20T08:05:24.463Z,58.86
2023-07-20T08:06:24.730Z,60.89
2023-07-20T08:07:24.466Z,61.79
2023-07-20T08:08:24.806Z,61.57
2023-07-20T08:09:24.466Z,60.16
2023-07-20T08:10:24.525Z,60.96
2023-07-20T08:11:24.477Z,59.77
2023-07-20T08:12:24.495Z,61.57
2023-07-20T08:13:24.472Z,60.03
2023-07-20T08:14:24.467Z,61.04
2023-07-20T08:15:24.480Z,60.31
2023-07-20T08:16:25.020Z,58.40
2023-07-20T08:17:24.582Z,55.73
2023-07-20T08:18:24.585Z,54.97
2023-07-20T08:19:24.568Z,54.72
2023-07-20T08:20:24.470Z,51.92
2023-07-20T08:21:24.476Z,50.18
2023-07-20T08:22:24.472Z,52.64
2023-07-20T08:23:24.476Z,53.27
2023-07-20T08:24:24.511Z,54.61
2023-07-20T08:25:24.480Z,54.91
2023-07-20T08:26:24.908Z,53.86
2023-07-20T08:27:24.476Z,56.48
2023-07-20T08:28:24.548Z,54.99
2023-07-20T08:29:24.490Z,55.76
2023-07-20T08:30:24.510Z,57.20
2023-07-20T08:31:24.557Z,54.61
2023-07-20T08:32:24.494Z,56.90
2023-07-20T08:33:24.478Z,55.98
2023-07-20T08:34:31.486Z,54.01
2023-07-20T08:35:24.484Z,55.01
2023-07-20T08:36:24.799Z,55.04
2023-07-20T08:37:24.478Z,54.76
2023-07-20T08:38:24.903Z,54.36
2023-07-20T08:39:24.485Z,56.46
2023-07-20T08:40:24.488Z,55.49
2023-07-20T08:41:24.481Z,55.09
2023-07-20T08:42:24.482Z,54.99
2023-07-20T08:43:24.483Z,56.98
2023-07-20T08:44:24.535Z,56.38
2023-07-20T08:45:24.484Z,56.85
2023-07-20T08:46:24.704Z,57.93
2023-07-20T08:47:24.553Z,54.51
2023-07-20T08:48:24.487Z,54.44
2023-07-20T08:49:24.487Z,54.76
2023-07-20T08:50:24.484Z,54.86
2023-07-20T08:51:24.485Z,54.59
2023-07-20T08:52:24.485Z,55.24
2023-07-20T08:53:24.484Z,57.34
2023-07-20T08:54:24.492Z,58.34
2023-07-20T08:55:24.505Z,58.04
2023-07-20T08:56:24.696Z,58.51
2023-07-20T08:57:24.488Z,58.21
2023-07-20T08:58:24.486Z,57.78
2023-07-20T08:59:24.490Z,57.35
2023-07-20T09:00:24.639Z,56.09
2023-07-20T09:01:24.510Z,55.62
2023-07-20T09:02:24.540Z,57.01
2023-07-20T09:03:24.517Z,57.04
2023-07-20T09:04:24.491Z,56.34
2023-07-20T09:05:24.635Z,56.14
2023-07-20T09:06:25.006Z,56.04
2023-07-20T09:07:24.486Z,55.81
2023-07-20T09:08:24.513Z,54.57
2023-07-20T09:09:24.488Z,56.18
2023-07-20T09:10:25.454Z,55.88
2023-07-20T09:11:24.507Z,56.48
2023-07-20T09:12:24.490Z,57.23
2023-07-20T09:13:24.488Z,54.91
2023-07-20T09:14:24.724Z,52.51
2023-07-20T09:15:24.502Z,55.41
2023-07-20T09:16:24.855Z,54.61
2023-07-20T09:17:25.322Z,53.71
2023-07-20T09:18:24.493Z,54.64
2023-07-20T09:19:24.497Z,55.04
2023-07-20T09:20:24.570Z,54.66
2023-07-20T09:21:24.498Z,56.59
2023-07-20T09:22:24.496Z,55.02
2023-07-20T09:23:24.803Z,54.57
2023-07-20T09:24:24.563Z,56.39
2023-07-20T09:25:26.517Z,57.22
2023-07-20T09:26:24.747Z,58.12
2023-07-20T09:27:24.520Z,58.95
2023-07-20T09:28:24.502Z,59.08
2023-07-20T09:29:24.493Z,59.68
2023-07-20T09:31:24.534Z,63.34
2023-07-20T09:32:25.614Z,63.67
2023-07-20T09:33:27.472Z,64.01
2023-07-20T09:35:27.813Z,65.61
2023-07-20T09:36:58.411Z,65.94
2023-07-20T09:37:24.629Z,65.24
2023-07-20T09:38:24.658Z,65.94
2023-07-20T09:40:55.082Z,65.94
2023-07-20T09:43:26.328Z,66.24
2023-07-20T09:45:57.466Z,65.54
2023-07-20T09:50:26.556Z,65.94
2023-07-20T09:51:24.483Z,64.51
2023-07-20T09:53:24.472Z,64.68
2023-07-20T09:54:24.466Z,64.51
2023-07-20T09:55:24.466Z,64.01
2023-07-20T09:56:24.845Z,64.61
2023-07-20T09:57:24.473Z,64.91
2023-07-20T09:58:24.462Z,64.31
2023-07-20T09:59:24.462Z,64.71
2023-07-20T10:01:26.256Z,65.18
2023-07-20T10:02:24.490Z,64.25
2023-07-20T10:03:24.457Z,63.78
2023-07-20T10:04:24.456Z,64.04
2023-07-20T10:05:24.486Z,64.45
2023-07-20T10:06:24.740Z,65.35
2023-07-20T10:07:24.449Z,64.75
2023-07-20T10:09:24.503Z,65.15
2023-07-20T10:10:24.449Z,64.84
2023-07-20T10:11:24.502Z,64.45
2023-07-20T10:12:24.455Z,65.85
2023-07-20T10:13:24.431Z,66.15
2023-07-20T10:14:24.436Z,65.31
2023-07-20T10:15:24.436Z,65.25
2023-07-20T10:16:24.734Z,64.72
2023-07-20T10:17:24.456Z,65.01
2023-07-20T10:18:24.435Z,64.89
2023-07-20T10:19:24.429Z,64.89
2023-07-20T10:20:24.428Z,63.48
2023-07-20T10:22:24.424Z,64.18
2023-07-20T10:23:24.427Z,63.48
2023-07-20T10:24:24.437Z,63.68
2023-07-20T10:25:24.419Z,63.28
2023-07-20T10:26:24.693Z,63.92
2023-07-20T10:27:25.741Z,65.39
2023-07-20T10:28:24.418Z,65.36
2023-07-20T10:29:24.419Z,64.06
2023-07-20T10:30:24.413Z,62.55
2023-07-20T10:31:24.459Z,62.05
2023-07-20T10:32:24.414Z,63.65
2023-07-20T10:33:24.410Z,62.22
2023-07-20T10:34:24.408Z,62.05
2023-07-20T10:35:24.431Z,63.45
2023-07-20T10:36:24.596Z,62.15
2023-07-20T10:37:24.405Z,63.06
2023-07-20T10:38:24.405Z,63.53
2023-07-20T10:39:24.443Z,59.72
2023-07-20T10:40:24.405Z,61.02
2023-07-20T10:41:24.404Z,61.22
2023-07-20T10:42:24.403Z,63.32
2023-07-20T10:43:24.399Z,62.22
2023-07-20T10:44:24.396Z,61.49
2023-07-20T10:45:25.303Z,59.42
2023-07-20T10:46:24.624Z,59.52
2023-07-20T10:47:24.432Z,60.05
2023-07-20T10:48:24.434Z,61.45
2023-07-20T10:49:24.394Z,59.45
2023-07-20T10:50:24.487Z,59.55
2023-07-20T10:51:24.404Z,61.05
2023-07-20T10:52:24.388Z,61.52
2023-07-20T10:53:24.386Z,63.12
2023-07-20T10:54:24.392Z,59.92
2023-07-20T10:55:24.387Z,60.59
2023-07-20T10:56:24.763Z,60.49
2023-07-20T10:57:24.404Z,60.19
2023-07-20T10:58:24.390Z,61.49
2023-07-20T10:59:24.388Z,61.16
2023-07-20T11:00:24.382Z,60.36
2023-07-20T11:01:24.587Z,60.57
2023-07-20T11:02:24.467Z,58.86
2023-07-20T11:03:24.981Z,58.19
2023-07-20T11:04:24.408Z,59.89
2023-07-20T11:05:24.414Z,59.49
2023-07-20T11:06:24.380Z,59.39
2023-07-20T11:07:25.403Z,58.99
2023-07-20T11:08:24.373Z,60.10
2023-07-20T11:09:25.956Z,58.69
2023-07-20T11:10:24.399Z,59.30
2023-07-20T11:11:24.628Z,59.59
2023-07-20T11:12:24.371Z,59.19
2023-07-20T11:13:24.445Z,59.56
2023-07-20T11:14:24.370Z,59.36
2023-07-20T11:15:24.369Z,60.06
2023-07-20T11:16:24.720Z,59.06
2023-07-20T11:17:24.377Z,59.27
2023-07-20T11:18:24.366Z,57.87
2023-07-20T11:20:24.368Z,58.54
2023-07-20T11:21:24.832Z,58.11
2023-07-20T11:22:24.367Z,56.79
2023-07-20T11:23:24.375Z,58.18
2023-07-20T11:24:24.439Z,56.79
2023-07-20T11:25:24.361Z,57.15
2023-07-20T11:26:24.365Z,57.26
2023-07-20T11:27:24.369Z,57.13
2023-07-20T11:28:24.363Z,56.93
2023-07-20T11:29:31.167Z,55.13
2023-07-20T11:30:24.460Z,55.63
2023-07-20T11:31:24.832Z,55.13
2023-07-20T11:32:24.360Z,56.56
2023-07-20T11:33:24.369Z,56.79
2023-07-20T11:34:24.360Z,57.11
2023-07-20T11:35:24.364Z,59.31
2023-07-20T11:37:24.379Z,60.24
2023-07-20T11:38:24.368Z,63.13
2023-07-20T11:39:24.363Z,61.26
2023-07-20T11:40:27.124Z,62.39
2023-07-20T11:41:24.369Z,63.15
2023-07-20T11:43:24.418Z,66.85
2023-07-20T11:44:25.258Z,67.58
2023-07-20T11:45:24.356Z,69.32
2023-07-20T11:46:24.716Z,70.76
2023-07-20T11:47:24.363Z,69.35
2023-07-20T11:48:24.360Z,71.20
2023-07-20T11:49:24.358Z,71.97
2023-07-20T11:50:24.352Z,72.20
2023-07-20T11:51:24.368Z,71.77
2023-07-20T11:52:24.369Z,71.47
2023-07-20T11:53:24.350Z,71.26
2023-07-20T11:54:24.399Z,72.06
2023-07-20T11:55:24.352Z,73.13
2023-07-20T11:56:24.598Z,72.33
2023-07-20T11:57:24.344Z,70.83
2023-07-20T11:58:24.342Z,72.50
2023-07-20T11:59:24.338Z,73.10
2023-07-20T12:00:26.435Z,70.50
2023-07-20T12:01:24.347Z,70.29
2023-07-20T12:02:24.349Z,70.59
2023-07-20T12:03:24.344Z,71.09
2023-07-20T12:04:24.398Z,71.30
2023-07-20T12:05:24.340Z,67.49
2023-07-20T12:06:25.440Z,68.99
2023-07-20T12:07:24.366Z,71.30
2023-07-20T12:08:24.341Z,68.35
2023-07-20T12:09:26.208Z,67.29
2023-07-20T12:10:24.321Z,68.39
2023-07-20T12:11:24.320Z,67.76
2023-07-20T12:12:25.583Z,68.76
2023-07-20T12:13:24.325Z,68.46
2023-07-20T12:14:24.312Z,68.65
2023-07-20T12:15:24.324Z,66.45
2023-07-20T12:16:24.520Z,67.35
2023-07-20T12:17:24.366Z,66.32
2023-07-20T12:18:24.347Z,65.42
2023-07-20T12:19:24.325Z,65.89
2023-07-20T12:20:24.310Z,65.69
2023-07-20T12:21:24.306Z,66.69
2023-07-20T12:22:24.307Z,65.78
2023-07-20T12:23:24.303Z,65.25
2023-07-20T12:24:24.359Z,65.05
2023-07-20T12:25:24.313Z,63.92
2023-07-20T12:26:24.406Z,61.92
2023-07-20T12:27:24.302Z,63.53
2023-07-20T12:28:24.302Z,63.79
2023-07-20T12:29:24.299Z,61.59
2023-07-20T12:30:24.297Z,61.49
2023-07-20T12:31:24.355Z,63.29
2023-07-20T12:32:24.303Z,63.69
2023-07-20T12:33:24.297Z,61.99
2023-07-20T12:34:24.299Z,59.79
2023-07-20T12:35:24.291Z,60.89
2023-07-20T12:36:24.530Z,59.49
2023-07-20T12:37:24.297Z,62.52
2023-07-20T12:38:24.296Z,58.82
2023-07-20T12:39:24.286Z,60.69
2023-07-20T12:40:24.290Z,53.52
2023-07-20T12:41:24.290Z,53.62
2023-07-20T12:42:24.297Z,57.55
2023-07-20T12:43:24.285Z,58.82
2023-07-20T12:44:24.281Z,57.32
2023-07-20T12:45:24.275Z,56.02
2023-07-20T12:46:24.599Z,54.72
2023-07-20T12:47:24.294Z,54.29
2023-07-20T12:48:24.280Z,53.79
2023-07-20T12:49:24.274Z,54.60
2023-07-20T12:50:24.308Z,55.19
2023-07-20T12:51:24.271Z,52.69
2023-07-20T12:52:24.270Z,53.30
2023-07-20T12:53:24.271Z,55.09
2023-07-20T12:54:24.294Z,53.89
2023-07-20T12:55:24.278Z,52.69
2023-07-20T12:57:24.266Z,52.27
2023-07-20T12:58:24.273Z,52.17
2023-07-20T12:59:24.260Z,50.27
2023-07-20T13:00:24.300Z,51.07
2023-07-20T13:01:24.286Z,51.77
2023-07-20T13:02:24.296Z,50.77
2023-07-20T13:04:24.290Z,48.87
2023-07-20T13:06:28.154Z,50.09
2023-07-20T13:08:24.259Z,50.57
2023-07-20T13:09:24.266Z,50.17
2023-07-20T13:10:24.260Z,50.54
2023-07-20T13:11:24.446Z,50.17
2023-07-20T13:12:24.251Z,50.15
2023-07-20T13:13:24.271Z,50.24
2023-07-20T13:14:24.244Z,49.15
2023-07-20T13:15:24.245Z,48.94
2023-07-20T13:16:24.383Z,51.12
2023-07-20T13:17:24.355Z,50.62
2023-07-20T13:18:24.265Z,50.22
2023-07-20T13:19:24.238Z,49.80
2023-07-20T13:20:24.251Z,49.12
2023-07-20T13:21:26.053Z,50.02
2023-07-20T13:22:24.285Z,48.90